createdAt,value
2023-09-25T00:00:52.876Z,65.80
2023-09-25T00:03:21.359Z,65.30
2023-09-25T00:05:49.365Z,66.30
2023-09-25T00:08:17.807Z,65.50
2023-09-25T00:10:46.197Z,65.60
2023-09-25T00:13:16.017Z,65.80
2023-09-25T00:15:45.407Z,66.90
2023-09-25T00:18:15.538Z,65.70
2023-09-25T00:20:43.633Z,65.90
2023-09-25T00:23:11.586Z,65.70
2023-09-25T00:25:39.499Z,65.70
2023-09-25T00:28:08.651Z,65.70
2023-09-25T00:30:39.457Z,65.70
2023-09-25T00:33:07.797Z,65.90
2023-09-25T00:35:36.273Z,65.90
2023-09-25T00:38:05.125Z,65.80
2023-09-25T00:40:33.535Z,65.70
2023-09-25T00:43:01.434Z,66.40
2023-09-25T00:45:30.464Z,65.90
2023-09-25T00:48:00.653Z,66.10
2023-09-25T00:50:32.645Z,66.10
2023-09-25T00:53:04.873Z,65.90
2023-09-25T00:55:34.430Z,66.00
2023-09-25T00:58:02.980Z,66.00
2023-09-25T01:00:31.502Z,65.50
2023-09-25T01:03:00.862Z,66.20
2023-09-25T01:05:29.456Z,66.40
2023-09-25T01:07:57.446Z,66.60
2023-09-25T01:10:26.110Z,66.70
2023-09-25T01:12:54.722Z,67.40
2023-09-25T01:15:23.048Z,67.40
2023-09-25T01:17:51.592Z,67.00
2023-09-25T01:20:21.314Z,67.60
2023-09-25T01:22:51.532Z,67.00
2023-09-25T01:25:22.388Z,67.10
2023-09-25T01:27:50.894Z,67.00
2023-09-25T01:30:20.717Z,67.80
2023-09-25T01:32:50.874Z,67.10
2023-09-25T01:35:20.795Z,67.10
2023-09-25T01:37:51.077Z,67.20
2023-09-25T01:40:20.077Z,67.90
2023-09-25T01:42:49.071Z,67.20
2023-09-25T01:45:19.181Z,67.50
2023-09-25T01:47:51.263Z,67.50
2023-09-25T01:50:20.267Z,68.50
2023-09-25T01:52:50.309Z,68.90
2023-09-25T01:55:20.164Z,69.70
2023-09-25T01:57:48.561Z,67.90
2023-09-25T02:00:19.793Z,68.10
2023-09-25T02:02:48.752Z,68.10
2023-09-25T02:05:17.474Z,68.30
2023-09-25T02:07:45.744Z,69.00
2023-09-25T02:10:14.287Z,68.50
2023-09-25T02:12:44.235Z,68.80
2023-09-25T02:15:12.356Z,67.90
2023-09-25T02:17:40.854Z,67.70
2023-09-25T02:20:21.561Z,68.80
2023-09-25T02:22:50.726Z,67.90
2023-09-25T02:25:18.887Z,67.70
2023-09-25T02:27:48.956Z,68.50
2023-09-25T02:30:17.567Z,68.10
2023-09-25T02:32:47.118Z,67.60
2023-09-25T02:35:15.582Z,67.60
2023-09-25T02:37:46.183Z,67.50
2023-09-25T02:40:15.064Z,67.40
2023-09-25T02:42:44.070Z,67.50
2023-09-25T02:45:13.574Z,67.60
2023-09-25T02:47:41.574Z,67.80
2023-09-25T02:50:12.458Z,69.00
2023-09-25T02:52:40.350Z,67.80
2023-09-25T02:55:08.918Z,68.40
2023-09-25T02:57:37.351Z,67.90
2023-09-25T03:00:13.136Z,68.00
2023-09-25T03:02:42.964Z,68.10
2023-09-25T03:05:13.196Z,68.50
2023-09-25T03:07:41.318Z,69.30
2023-09-25T03:10:10.405Z,68.50
2023-09-25T03:12:39.052Z,68.70
2023-09-25T03:15:08.786Z,68.80
2023-09-25T03:17:37.865Z,69.00
2023-09-25T03:20:16.861Z,69.00
2023-09-25T03:22:56.464Z,69.30
2023-09-25T03:25:25.125Z,69.50
2023-09-25T03:27:53.486Z,69.30
2023-09-25T03:30:21.534Z,69.30
2023-09-25T03:32:53.525Z,70.60
2023-09-25T03:35:23.020Z,69.10
2023-09-25T03:37:51.395Z,70.90
2023-09-25T03:40:19.298Z,69.00
2023-09-25T03:42:47.763Z,68.80
2023-09-25T03:45:16.307Z,68.60
2023-09-25T03:47:44.293Z,68.40
2023-09-25T03:50:13.595Z,68.40
2023-09-25T03:52:44.160Z,68.20
2023-09-25T03:55:12.932Z,68.20
2023-09-25T03:57:40.968Z,68.20
2023-09-25T04:00:10.377Z,68.20
2023-09-25T04:02:38.394Z,68.40
2023-09-25T04:05:07.265Z,68.30
2023-09-25T04:07:35.707Z,69.00
2023-09-25T04:10:08.844Z,68.60
2023-09-25T04:12:36.829Z,68.70
2023-09-25T04:15:06.522Z,68.60
2023-09-25T04:17:35.303Z,68.60
2023-09-25T04:20:03.844Z,68.60
2023-09-25T04:22:32.446Z,68.50
2023-09-25T04:25:00.535Z,68.50
2023-09-25T04:27:30.614Z,68.40
2023-09-25T04:29:59.027Z,68.50
2023-09-25T04:32:28.123Z,68.60
2023-09-25T04:34:56.359Z,69.50
2023-09-25T04:37:25.200Z,68.70
2023-09-25T04:39:53.073Z,68.60
2023-09-25T04:42:23.113Z,68.90
2023-09-25T04:44:52.415Z,69.90
2023-09-25T04:47:20.818Z,68.90
2023-09-25T04:49:49.853Z,68.90
2023-09-25T04:52:18.289Z,68.90
2023-09-25T04:54:46.787Z,69.00
2023-09-25T04:57:15.647Z,69.10
2023-09-25T04:59:44.828Z,68.90
2023-09-25T05:02:14.540Z,69.90
2023-09-25T05:04:42.958Z,68.90
2023-09-25T05:07:10.917Z,68.90
2023-09-25T05:09:39.104Z,68.60
2023-09-25T05:12:07.840Z,69.20
2023-09-25T05:14:35.816Z,68.70
2023-09-25T05:17:05.944Z,69.40
2023-09-25T05:19:35.338Z,68.70
2023-09-25T05:22:03.291Z,68.70
2023-09-25T05:24:31.494Z,69.50
2023-09-25T05:26:59.897Z,68.40
2023-09-25T05:29:28.313Z,68.60
2023-09-25T05:31:56.676Z,68.40
2023-09-25T05:34:25.071Z,68.80
2023-09-25T05:36:54.384Z,68.60
2023-09-25T05:39:26.005Z,69.40
2023-09-25T05:41:53.969Z,70.10
2023-09-25T05:44:22.417Z,69.10
2023-09-25T05:46:50.370Z,69.00
2023-09-25T05:49:18.322Z,69.30
2023-09-25T05:51:46.823Z,69.50
2023-09-25T05:54:16.636Z,69.50
2023-09-25T05:56:45.532Z,70.00
2023-09-25T05:59:14.614Z,69.90
2023-09-25T06:01:43.740Z,70.90
2023-09-25T06:04:12.798Z,70.80
2023-09-25T06:06:41.318Z,70.20
2023-09-25T06:09:17.856Z,70.30
2023-09-25T06:11:47.702Z,70.50
2023-09-25T06:14:15.641Z,70.50
2023-09-25T06:16:44.165Z,70.60
2023-09-25T06:19:13.960Z,71.40
2023-09-25T06:21:42.482Z,70.60
2023-09-25T06:24:11.388Z,72.10
2023-09-25T06:26:40.868Z,70.80
2023-09-25T06:29:11.508Z,71.10
2023-09-25T06:31:49.952Z,71.00
2023-09-25T06:34:27.055Z,70.90
2023-09-25T06:36:55.836Z,70.70
2023-09-25T06:39:24.588Z,70.80
2023-09-25T06:41:52.768Z,70.60
2023-09-25T06:44:22.593Z,70.80
2023-09-25T06:46:51.395Z,71.70
2023-09-25T06:49:21.344Z,72.20
2023-09-25T06:51:49.493Z,71.80
2023-09-25T06:54:19.074Z,71.30
2023-09-25T06:56:47.074Z,71.40
2023-09-25T06:59:15.489Z,71.60
2023-09-25T07:01:45.568Z,71.70
2023-09-25T07:04:13.803Z,71.90
2023-09-25T07:06:42.344Z,72.10
2023-09-25T07:09:10.337Z,73.00
2023-09-25T07:11:38.810Z,72.30
2023-09-25T07:14:07.853Z,72.30
2023-09-25T07:16:37.112Z,72.50
2023-09-25T07:19:09.748Z,73.50
2023-09-25T07:21:38.363Z,73.00
2023-09-25T07:24:07.120Z,73.00
2023-09-25T07:26:35.117Z,73.20
2023-09-25T07:29:03.312Z,73.40
2023-09-25T07:31:31.760Z,74.10
2023-09-25T07:33:59.948Z,73.70
2023-09-25T07:36:30.303Z,74.20
2023-09-25T07:38:58.305Z,73.90
2023-09-25T07:41:26.363Z,73.90
2023-09-25T07:43:58.404Z,74.20
2023-09-25T07:46:28.106Z,75.90
2023-09-25T07:48:57.520Z,75.60
2023-09-25T07:51:28.110Z,75.00
2023-09-25T07:54:00.493Z,75.60
2023-09-25T07:56:28.578Z,75.20
2023-09-25T07:58:57.539Z,75.10
2023-09-25T08:01:30.635Z,75.10
2023-09-25T08:03:59.916Z,75.10
2023-09-25T08:06:28.765Z,75.10
2023-09-25T08:08:58.759Z,75.00
2023-09-25T08:11:26.814Z,74.90
2023-09-25T08:13:55.456Z,74.70
2023-09-25T08:16:24.767Z,76.20
2023-09-25T08:18:53.660Z,74.60
2023-09-25T08:21:22.346Z,75.20
2023-09-25T08:23:50.328Z,74.40
2023-09-25T08:26:21.050Z,75.30
2023-09-25T08:28:49.174Z,74.20
2023-09-25T08:31:17.810Z,74.20
2023-09-25T08:33:45.809Z,74.00
2023-09-25T08:36:13.732Z,73.80
2023-09-25T08:38:42.132Z,73.90
2023-09-25T08:41:11.844Z,73.70
2023-09-25T08:43:44.704Z,73.70
2023-09-25T08:46:13.728Z,74.50
2023-09-25T08:48:42.333Z,74.40
2023-09-25T08:51:10.474Z,73.00
2023-09-25T08:53:39.161Z,73.10
2023-09-25T08:56:08.490Z,73.10
2023-09-25T08:58:36.782Z,72.70
2023-09-25T09:01:06.737Z,73.00
2023-09-25T09:03:35.958Z,73.40
2023-09-25T09:06:05.697Z,72.80
2023-09-25T09:08:33.644Z,72.40
2023-09-25T09:11:11.724Z,72.20
2023-09-25T09:13:45.909Z,73.20
2023-09-25T09:16:16.676Z,73.00
2023-09-25T09:18:45.677Z,72.10
2023-09-25T09:21:28.139Z,72.10
2023-09-25T09:23:58.597Z,71.40
2023-09-25T09:26:27.797Z,71.40
2023-09-25T09:28:56.228Z,71.90
2023-09-25T09:31:25.566Z,71.70
2023-09-25T09:33:56.423Z,72.00
2023-09-25T09:36:25.439Z,71.30
2023-09-25T09:38:55.905Z,71.30
2023-09-25T09:41:24.358Z,71.70
2023-09-25T09:43:54.347Z,70.90
2023-09-25T09:46:28.551Z,71.40
2023-09-25T09:48:59.299Z,70.90
2023-09-25T09:51:29.593Z,70.60
2023-09-25T09:54:04.155Z,70.50
2023-09-25T09:56:33.190Z,70.50
2023-09-25T09:59:02.867Z,70.10
2023-09-25T10:01:35.205Z,70.20
2023-09-25T10:04:05.225Z,70.40
2023-09-25T10:06:37.964Z,69.80
2023-09-25T10:09:11.491Z,69.80
2023-09-25T10:11:39.461Z,69.70
2023-09-25T10:14:10.697Z,69.80
2023-09-25T10:16:59.714Z,69.40
2023-09-25T10:19:50.921Z,69.00
2023-09-25T10:22:21.603Z,68.50
2023-09-25T10:24:55.750Z,69.10
2023-09-25T10:27:27.784Z,68.50
2023-09-25T10:30:07.942Z,68.30
2023-09-25T10:32:40.098Z,67.90
2023-09-25T10:35:43.501Z,67.90
2023-09-25T10:38:31.132Z,67.20
2023-09-25T10:41:03.213Z,67.00
2023-09-25T10:43:32.382Z,67.20
2023-09-25T10:46:00.494Z,66.60
2023-09-25T10:48:33.317Z,66.80
2023-09-25T10:51:01.367Z,66.10
2023-09-25T10:53:30.407Z,65.90
2023-09-25T10:55:59.046Z,65.70
2023-09-25T10:58:27.947Z,65.50
2023-09-25T11:00:57.330Z,65.40
2023-09-25T11:03:26.624Z,65.50
2023-09-25T11:05:56.336Z,64.40
2023-09-25T11:08:24.783Z,64.80
2023-09-25T11:10:53.542Z,64.70
2023-09-25T11:13:22.945Z,64.30
2023-09-25T11:15:52.284Z,64.20
2023-09-25T11:18:21.898Z,63.50
2023-09-25T11:20:52.822Z,63.50
2023-09-25T11:23:23.287Z,63.90
2023-09-25T11:25:53.975Z,62.80
2023-09-25T11:28:23.567Z,62.60
2023-09-25T11:30:53.725Z,62.40
2023-09-25T11:33:24.096Z,62.00
2023-09-25T11:35:55.846Z,62.40
2023-09-25T11:38:29.348Z,61.90
2023-09-25T11:41:06.654Z,61.50
2023-09-25T11:43:35.358Z,61.30
2023-09-25T11:46:03.454Z,60.80
2023-09-25T11:48:32.033Z,60.40
2023-09-25T11:51:00.202Z,60.20
2023-09-25T11:53:30.008Z,59.70
2023-09-25T11:55:58.078Z,59.20
2023-09-25T11:58:29.958Z,58.90
2023-09-25T12:00:57.976Z,59.20
2023-09-25T12:03:26.504Z,59.10
2023-09-25T12:05:54.676Z,58.70
2023-09-25T12:08:23.413Z,58.70
2023-09-25T12:10:53.168Z,59.00
2023-09-25T12:13:22.646Z,58.70
2023-09-25T12:15:51.374Z,58.70
2023-09-25T12:18:19.889Z,58.50
2023-09-25T12:20:48.790Z,58.20
2023-09-25T12:23:17.928Z,57.90
2023-09-25T12:25:50.625Z,57.80
2023-09-25T12:28:19.971Z,57.60
2023-09-25T12:30:48.701Z,57.40
2023-09-25T12:33:20.068Z,57.10
2023-09-25T12:35:48.077Z,57.20
2023-09-25T12:38:16.928Z,57.10
2023-09-25T12:40:44.867Z,56.70
2023-09-25T12:43:13.356Z,56.60
2023-09-25T12:45:43.266Z,56.30
2023-09-25T12:48:11.930Z,55.90
2023-09-25T12:50:40.511Z,56.00
2023-09-25T12:53:08.937Z,55.90
2023-09-25T12:55:37.382Z,55.80
2023-09-25T12:58:06.327Z,55.60
2023-09-25T13:00:34.774Z,55.50
2023-09-25T13:03:04.795Z,54.90
2023-09-25T13:05:34.448Z,54.50
2023-09-25T13:08:03.211Z,54.80
2023-09-25T13:10:31.191Z,54.60
2023-09-25T13:12:59.310Z,54.10
2023-09-25T13:15:27.817Z,54.30
2023-09-25T13:17:56.286Z,54.30
2023-09-25T13:20:27.312Z,54.40
2023-09-25T13:22:55.834Z,54.30
2023-09-25T13:25:25.772Z,53.70
2023-09-25T13:27:53.797Z,53.60
2023-09-25T13:30:23.770Z,53.60
2023-09-25T13:32:51.894Z,53.50
2023-09-25T13:35:21.581Z,53.20
2023-09-25T13:37:51.391Z,52.60
2023-09-25T13:40:20.059Z,52.20
2023-09-25T13:42:48.614Z,52.30
2023-09-25T13:45:16.908Z,52.40
2023-09-25T13:47:46.007Z,52.10
2023-09-25T13:50:15.563Z,51.30
2023-09-25T13:52:43.934Z,50.90
2023-09-25T13:55:16.839Z,50.90
2023-09-25T13:57:45.093Z,50.90
2023-09-25T14:00:14.294Z,51.10
2023-09-25T14:02:43.002Z,51.10
2023-09-25T14:05:13.372Z,51.20
2023-09-25T14:07:42.080Z,50.50
2023-09-25T14:10:12.788Z,50.50
2023-09-25T14:12:42.290Z,49.90
2023-09-25T14:15:13.700Z,49.70
2023-09-25T14:17:42.515Z,49.80
2023-09-25T14:20:11.773Z,48.70
2023-09-25T14:22:41.267Z,49.10
2023-09-25T14:25:10.260Z,49.10
2023-09-25T14:27:38.751Z,49.00
2023-09-25T14:30:09.394Z,48.80
2023-09-25T14:32:38.010Z,48.40
2023-09-25T14:35:07.782Z,48.70
2023-09-25T14:37:36.329Z,48.60
2023-09-25T14:40:05.038Z,48.60
2023-09-25T14:42:34.437Z,48.50
2023-09-25T14:45:03.325Z,48.10
2023-09-25T14:47:32.841Z,47.90
2023-09-25T14:50:01.381Z,47.80
2023-09-25T14:52:30.299Z,47.60
2023-09-25T14:54:58.587Z,46.80
2023-09-25T14:57:27.293Z,46.90
2023-09-25T14:59:55.636Z,46.90
2023-09-25T15:02:24.242Z,46.90
2023-09-25T15:04:54.004Z,46.60
2023-09-25T15:07:22.575Z,46.10
2023-09-25T15:09:50.641Z,46.20
2023-09-25T15:12:21.637Z,46.40
2023-09-25T15:14:49.588Z,45.70
2023-09-25T15:17:18.045Z,45.70
2023-09-25T15:19:46.937Z,45.90
2023-09-25T15:22:16.747Z,46.10
2023-09-25T15:24:45.273Z,46.00
2023-09-25T15:27:13.280Z,45.50
2023-09-25T15:29:43.570Z,45.40
2023-09-25T15:32:12.417Z,45.40
2023-09-25T15:34:42.796Z,45.10
2023-09-25T15:37:11.625Z,44.70
2023-09-25T15:39:41.376Z,45.00
2023-09-25T15:42:09.935Z,44.60
2023-09-25T15:44:38.261Z,44.70
2023-09-25T15:47:07.633Z,44.60
2023-09-25T15:49:35.674Z,44.60
2023-09-25T15:52:03.720Z,44.60
2023-09-25T15:54:32.251Z,44.40
2023-09-25T15:57:01.591Z,44.20
2023-09-25T15:59:29.521Z,43.40
2023-09-25T16:01:58.078Z,43.50
2023-09-25T16:04:26.599Z,43.70
2023-09-25T16:06:55.185Z,43.60
2023-09-25T16:09:23.203Z,43.60
2023-09-25T16:11:51.619Z,43.70
2023-09-25T16:14:21.146Z,43.80
2023-09-25T16:16:49.949Z,43.70
2023-09-25T16:19:18.791Z,44.10
2023-09-25T16:21:47.364Z,44.60
2023-09-25T16:24:15.811Z,44.50
2023-09-25T16:26:43.691Z,45.00
2023-09-25T16:29:12.113Z,45.20
2023-09-25T16:31:42.038Z,45.70
2023-09-25T16:34:10.528Z,46.00
2023-09-25T16:36:38.572Z,46.40
2023-09-25T16:39:08.768Z,46.60
2023-09-25T16:41:37.445Z,46.80
2023-09-25T16:44:05.950Z,47.20
2023-09-25T16:46:35.367Z,47.50
2023-09-25T16:49:05.154Z,47.70
2023-09-25T16:51:33.186Z,47.90
2023-09-25T16:54:01.351Z,48.20
2023-09-25T16:56:40.175Z,48.40
2023-09-25T16:59:09.914Z,48.60
2023-09-25T17:01:38.666Z,48.50
2023-09-25T17:04:08.958Z,48.90
2023-09-25T17:06:37.754Z,49.30
2023-09-25T17:09:06.680Z,49.50
2023-09-25T17:11:34.826Z,49.70
2023-09-25T17:14:03.529Z,49.70
2023-09-25T17:16:32.380Z,49.90
2023-09-25T17:19:00.837Z,49.90
2023-09-25T17:21:32.341Z,50.20
2023-09-25T17:24:00.348Z,50.30
2023-09-25T17:26:28.421Z,50.40
2023-09-25T17:28:56.393Z,50.40
2023-09-25T17:31:26.852Z,50.50
2023-09-25T17:33:55.943Z,50.70
2023-09-25T17:36:23.949Z,50.90
2023-09-25T17:38:53.286Z,51.30
2023-09-25T17:41:21.908Z,51.30
2023-09-25T17:43:50.361Z,51.40
2023-09-25T17:46:18.516Z,51.70
2023-09-25T17:48:48.511Z,51.60
2023-09-25T17:51:17.080Z,51.70
2023-09-25T17:53:45.691Z,51.80
2023-09-25T17:56:15.470Z,52.10
2023-09-25T17:58:44.103Z,51.80
2023-09-25T18:01:12.147Z,51.80
2023-09-25T18:03:40.457Z,52.00
2023-09-25T18:06:08.741Z,52.10
2023-09-25T18:08:37.556Z,52.10
2023-09-25T18:11:05.686Z,52.20
2023-09-25T18:13:35.497Z,52.40
2023-09-25T18:16:04.562Z,52.50
2023-09-25T18:18:32.692Z,52.60
2023-09-25T18:21:01.724Z,52.60
2023-09-25T18:23:30.795Z,52.70
2023-09-25T18:26:00.648Z,52.80
2023-09-25T18:28:29.218Z,53.10
2023-09-25T18:31:01.078Z,52.90
2023-09-25T18:33:29.745Z,52.90
2023-09-25T18:35:58.626Z,53.20
2023-09-25T18:38:26.610Z,53.40
2023-09-25T18:40:56.101Z,53.60
2023-09-25T18:43:26.077Z,53.90
2023-09-25T18:45:54.685Z,54.20
2023-09-25T18:48:24.084Z,53.80
2023-09-25T18:50:52.468Z,54.50
2023-09-25T18:53:21.236Z,54.70
2023-09-25T18:55:50.107Z,53.90
2023-09-25T18:58:18.118Z,54.10
2023-09-25T19:00:48.070Z,54.20
2023-09-25T19:03:16.075Z,54.40
2023-09-25T19:05:46.247Z,54.30
2023-09-25T19:08:19.538Z,54.50
2023-09-25T19:10:48.025Z,54.40
2023-09-25T19:13:34.181Z,54.60
2023-09-25T19:16:08.326Z,54.60
2023-09-25T19:18:37.807Z,54.60
2023-09-25T19:21:07.708Z,54.90
2023-09-25T19:23:37.545Z,55.20
2023-09-25T19:26:06.306Z,55.20
2023-09-25T19:28:34.527Z,55.10
2023-09-25T19:31:03.201Z,55.80
2023-09-25T19:33:54.525Z,55.80
2023-09-25T19:36:22.885Z,55.40
2023-09-25T19:38:51.364Z,55.60
2023-09-25T19:41:19.275Z,55.90
2023-09-25T19:43:49.902Z,56.00
2023-09-25T19:46:18.773Z,56.20
2023-09-25T19:48:46.863Z,56.00
2023-09-25T19:51:15.316Z,56.00
2023-09-25T19:53:44.730Z,56.10
2023-09-25T19:56:12.819Z,56.70
2023-09-25T19:58:41.593Z,56.80
2023-09-25T20:01:14.389Z,56.70
2023-09-25T20:03:43.199Z,56.90
2023-09-25T20:06:11.717Z,56.40
2023-09-25T20:08:39.837Z,56.80
2023-09-25T20:11:09.850Z,57.60
2023-09-25T20:13:37.747Z,57.00
2023-09-25T20:16:06.052Z,57.30
2023-09-25T20:18:34.540Z,57.50
2023-09-25T20:21:02.478Z,57.50
2023-09-25T20:23:30.932Z,58.00
2023-09-25T20:25:58.953Z,57.60
2023-09-25T20:28:29.179Z,58.00
2023-09-25T20:30:57.683Z,58.00
2023-09-25T20:33:26.117Z,57.40
2023-09-25T20:35:54.024Z,57.50
2023-09-25T20:38:22.431Z,58.10
2023-09-25T20:40:50.568Z,59.10
2023-09-25T20:43:18.581Z,58.20
2023-09-25T20:45:52.581Z,58.20
2023-09-25T20:48:25.139Z,58.10
2023-09-25T20:50:53.587Z,58.20
2023-09-25T20:53:21.537Z,58.70
2023-09-25T20:55:50.455Z,58.90
2023-09-25T20:58:18.725Z,58.60
2023-09-25T21:00:48.594Z,59.30
2023-09-25T21:03:16.879Z,59.30
2023-09-25T21:05:45.359Z,58.90
2023-09-25T21:08:13.344Z,59.30
2023-09-25T21:10:41.729Z,59.00
2023-09-25T21:13:10.281Z,59.80
2023-09-25T21:15:38.880Z,59.00
2023-09-25T21:18:11.301Z,59.20
2023-09-25T21:20:39.793Z,59.10
2023-09-25T21:23:08.958Z,59.40
2023-09-25T21:25:36.930Z,59.80
2023-09-25T21:28:05.262Z,59.80
2023-09-25T21:30:33.278Z,59.70
2023-09-25T21:33:01.242Z,60.40
2023-09-25T21:35:30.537Z,59.80
2023-09-25T21:37:58.465Z,60.30
2023-09-25T21:40:26.541Z,60.70
2023-09-25T21:42:54.661Z,60.30
2023-09-25T21:45:22.600Z,60.30
2023-09-25T21:47:50.594Z,61.60
2023-09-25T21:50:20.586Z,61.00
2023-09-25T21:52:49.877Z,60.70
2023-09-25T21:55:18.100Z,61.20
2023-09-25T21:57:46.172Z,61.70
2023-09-25T22:00:18.332Z,60.70
2023-09-25T22:02:46.341Z,60.90
2023-09-25T22:05:14.425Z,60.90
2023-09-25T22:07:43.311Z,62.10
2023-09-25T22:10:14.262Z,61.30
2023-09-25T22:12:43.078Z,62.50
2023-09-25T22:15:12.754Z,61.90
2023-09-25T22:17:40.987Z,61.90
2023-09-25T22:20:13.755Z,62.80
2023-09-25T22:22:42.410Z,62.00
2023-09-25T22:25:12.716Z,62.30
2023-09-25T22:27:41.176Z,62.50
2023-09-25T22:30:10.782Z,63.30
2023-09-25T22:32:39.231Z,62.70
2023-09-25T22:35:10.692Z,62.80
2023-09-25T22:37:40.060Z,62.70
2023-09-25T22:40:28.072Z,63.50
2023-09-25T22:42:58.713Z,62.70
2023-09-25T22:45:27.260Z,63.60
2023-09-25T22:47:55.160Z,62.90
2023-09-25T22:50:23.608Z,63.40
2023-09-25T22:52:51.570Z,63.30
2023-09-25T22:55:20.010Z,62.80
2023-09-25T22:57:48.224Z,63.80
2023-09-25T23:00:24.124Z,64.40
2023-09-25T23:05:21.829Z,63.60
2023-09-25T23:07:50.282Z,63.60
2023-09-25T23:10:19.101Z,63.60
2023-09-25T23:12:48.066Z,64.60
2023-09-25T23:15:18.828Z,64.10
2023-09-25T23:17:48.125Z,64.50
2023-09-25T23:20:19.246Z,64.10
2023-09-25T23:22:48.337Z,64.80
2023-09-25T23:25:16.873Z,65.30
2023-09-25T23:27:46.106Z,64.40
2023-09-25T23:30:15.690Z,65.30
2023-09-25T23:32:47.605Z,64.70
2023-09-25T23:35:18.054Z,64.90
2023-09-25T23:37:47.668Z,65.50
2023-09-25T23:40:20.505Z,65.10
2023-09-25T23:42:48.745Z,65.50
2023-09-25T23:45:18.495Z,65.60
2023-09-25T23:47:48.966Z,65.80
2023-09-25T23:50:18.080Z,66.50
2023-09-25T23:52:48.391Z,66.20
2023-09-25T23:55:16.993Z,65.80
2023-09-25T23:57:45.510Z,65.40
